sensor_id;sensor_type;location;lat;lon;timestamp;P1;durP1;ratioP1;P2;durP2;ratioP2
59876;SDS011;45749;51.140;17.184;2023-06-14T00:02:03;6.53;;;4.90;;
59876;SDS011;45749;51.140;17.184;2023-06-14T00:04:29;5.45;;;3.90;;
59876;SDS011;45749;51.140;17.184;2023-06-14T00:06:55;6.03;;;4.68;;
59876;SDS011;45749;51.140;17.184;2023-06-14T00:09:21;7.07;;;4.40;;
59876;SDS011;45749;51.140;17.184;2023-06-14T00:11:47;7.35;;;4.72;;
59876;SDS011;45749;51.140;17.184;2023-06-14T00:14:12;6.20;;;4.18;;
59876;SDS011;45749;51.140;17.184;2023-06-14T00:16:38;6.80;;;4.72;;
59876;SDS011;45749;51.140;17.184;2023-06-14T00:19:07;7.32;;;5.15;;
59876;SDS011;45749;51.140;17.184;2023-06-14T00:21:33;5.10;;;4.40;;
59876;SDS011;45749;51.140;17.184;2023-06-14T00:24:00;5.97;;;4.53;;
59876;SDS011;45749;51.140;17.184;2023-06-14T00:26:26;7.03;;;4.43;;
59876;SDS011;45749;51.140;17.184;2023-06-14T00:28:51;6.43;;;4.68;;
59876;SDS011;45749;51.140;17.184;2023-06-14T00:31:17;5.93;;;5.10;;
59876;SDS011;45749;51.140;17.184;2023-06-14T00:33:42;5.25;;;4.25;;
59876;SDS011;45749;51.140;17.184;2023-06-14T00:36:08;6.60;;;5.00;;
59876;SDS011;45749;51.140;17.184;2023-06-14T00:38:33;5.35;;;4.18;;
59876;SDS011;45749;51.140;17.184;2023-06-14T00:40:58;6.22;;;4.53;;
59876;SDS011;45749;51.140;17.184;2023-06-14T00:43:25;5.55;;;4.43;;
59876;SDS011;45749;51.140;17.184;2023-06-14T00:45:50;5.20;;;4.35;;
59876;SDS011;45749;51.140;17.184;2023-06-14T00:48:16;6.05;;;3.95;;
59876;SDS011;45749;51.140;17.184;2023-06-14T00:50:41;8.88;;;5.60;;
59876;SDS011;45749;51.140;17.184;2023-06-14T00:53:10;7.88;;;4.80;;
59876;SDS011;45749;51.140;17.184;2023-06-14T00:55:36;5.35;;;4.20;;
59876;SDS011;45749;51.140;17.184;2023-06-14T00:58:01;6.85;;;4.78;;
59876;SDS011;45749;51.140;17.184;2023-06-14T01:00:26;6.32;;;4.60;;
59876;SDS011;45749;51.140;17.184;2023-06-14T01:02:53;6.28;;;4.28;;
59876;SDS011;45749;51.140;17.184;2023-06-14T01:05:18;5.30;;;4.60;;
59876;SDS011;45749;51.140;17.184;2023-06-14T01:13:05;8.27;;;4.95;;
59876;SDS011;45749;51.140;17.184;2023-06-14T01:15:38;5.32;;;4.38;;
59876;SDS011;45749;51.140;17.184;2023-06-14T01:18:05;7.82;;;4.97;;
59876;SDS011;45749;51.140;17.184;2023-06-14T01:20:32;6.28;;;4.80;;
59876;SDS011;45749;51.140;17.184;2023-06-14T01:23:01;5.22;;;3.90;;
59876;SDS011;45749;51.140;17.184;2023-06-14T01:25:27;5.25;;;4.45;;
59876;SDS011;45749;51.140;17.184;2023-06-14T01:27:53;5.45;;;4.50;;
59876;SDS011;45749;51.140;17.184;2023-06-14T01:30:23;6.75;;;5.00;;
59876;SDS011;45749;51.140;17.184;2023-06-14T01:32:50;6.82;;;5.07;;
59876;SDS011;45749;51.140;17.184;2023-06-14T01:35:17;5.25;;;4.32;;
59876;SDS011;45749;51.140;17.184;2023-06-14T01:37:43;9.63;;;4.78;;
59876;SDS011;45749;51.140;17.184;2023-06-14T01:40:09;6.20;;;5.25;;
59876;SDS011;45749;51.140;17.184;2023-06-14T01:42:36;5.25;;;4.63;;
59876;SDS011;45749;51.140;17.184;2023-06-14T01:45:03;6.70;;;4.70;;
59876;SDS011;45749;51.140;17.184;2023-06-14T01:47:31;6.78;;;4.82;;
59876;SDS011;45749;51.140;17.184;2023-06-14T01:49:56;5.55;;;4.35;;
59876;SDS011;45749;51.140;17.184;2023-06-14T01:52:22;6.25;;;4.10;;
59876;SDS011;45749;51.140;17.184;2023-06-14T01:54:49;6.15;;;4.88;;
59876;SDS011;45749;51.140;17.184;2023-06-14T01:57:15;5.35;;;4.78;;
59876;SDS011;45749;51.140;17.184;2023-06-14T01:59:40;7.53;;;4.57;;
59876;SDS011;45749;51.140;17.184;2023-06-14T02:02:05;7.43;;;5.00;;
59876;SDS011;45749;51.140;17.184;2023-06-14T02:04:31;8.38;;;4.97;;
59876;SDS011;45749;51.140;17.184;2023-06-14T02:06:56;5.97;;;4.47;;
59876;SDS011;45749;51.140;17.184;2023-06-14T02:09:21;5.63;;;4.65;;
59876;SDS011;45749;51.140;17.184;2023-06-14T02:11:46;5.38;;;4.88;;
59876;SDS011;45749;51.140;17.184;2023-06-14T02:14:12;5.32;;;4.80;;
59876;SDS011;45749;51.140;17.184;2023-06-14T02:16:37;6.28;;;4.78;;
59876;SDS011;45749;51.140;17.184;2023-06-14T02:19:04;6.18;;;5.05;;
59876;SDS011;45749;51.140;17.184;2023-06-14T02:21:29;6.55;;;5.53;;
59876;SDS011;45749;51.140;17.184;2023-06-14T02:23:55;5.53;;;4.97;;
59876;SDS011;45749;51.140;17.184;2023-06-14T02:26:20;6.75;;;4.90;;
59876;SDS011;45749;51.140;17.184;2023-06-14T02:28:47;5.35;;;4.82;;
59876;SDS011;45749;51.140;17.184;2023-06-14T02:31:13;6.78;;;5.35;;
59876;SDS011;45749;51.140;17.184;2023-06-14T02:33:38;6.57;;;5.38;;
59876;SDS011;45749;51.140;17.184;2023-06-14T02:36:03;6.25;;;4.82;;
59876;SDS011;45749;51.140;17.184;2023-06-14T02:38:29;7.10;;;5.00;;
59876;SDS011;45749;51.140;17.184;2023-06-14T02:40:54;4.80;;;4.18;;
59876;SDS011;45749;51.140;17.184;2023-06-14T02:43:19;12.95;;;5.43;;
59876;SDS011;45749;51.140;17.184;2023-06-14T02:45:45;8.75;;;5.60;;
59876;SDS011;45749;51.140;17.184;2023-06-14T02:48:10;5.57;;;5.00;;
59876;SDS011;45749;51.140;17.184;2023-06-14T02:50:36;6.07;;;4.95;;
59876;SDS011;45749;51.140;17.184;2023-06-14T02:53:01;6.43;;;5.75;;
59876;SDS011;45749;51.140;17.184;2023-06-14T02:55:27;6.90;;;5.47;;
59876;SDS011;45749;51.140;17.184;2023-06-14T02:57:53;6.28;;;5.40;;
59876;SDS011;45749;51.140;17.184;2023-06-14T03:00:19;6.32;;;5.00;;
59876;SDS011;45749;51.140;17.184;2023-06-14T03:02:44;6.90;;;5.72;;
59876;SDS011;45749;51.140;17.184;2023-06-14T03:05:10;5.70;;;4.70;;
59876;SDS011;45749;51.140;17.184;2023-06-14T03:07:36;7.43;;;5.43;;
59876;SDS011;45749;51.140;17.184;2023-06-14T03:10:05;7.80;;;5.32;;
59876;SDS011;45749;51.140;17.184;2023-06-14T03:12:34;6.90;;;5.97;;
59876;SDS011;45749;51.140;17.184;2023-06-14T03:15:00;8.73;;;5.78;;
59876;SDS011;45749;51.140;17.184;2023-06-14T03:17:29;6.40;;;5.35;;
59876;SDS011;45749;51.140;17.184;2023-06-14T03:19:58;8.48;;;5.25;;
59876;SDS011;45749;51.140;17.184;2023-06-14T03:22:23;6.35;;;5.68;;
59876;SDS011;45749;51.140;17.184;2023-06-14T03:24:50;7.93;;;5.45;;
59876;SDS011;45749;51.140;17.184;2023-06-14T03:27:16;6.40;;;5.10;;
59876;SDS011;45749;51.140;17.184;2023-06-14T03:29:41;6.82;;;4.97;;
59876;SDS011;45749;51.140;17.184;2023-06-14T03:32:07;7.63;;;5.43;;
59876;SDS011;45749;51.140;17.184;2023-06-14T03:34:33;8.45;;;6.03;;
59876;SDS011;45749;51.140;17.184;2023-06-14T03:36:58;6.95;;;5.63;;
59876;SDS011;45749;51.140;17.184;2023-06-14T03:39:23;8.35;;;5.43;;
59876;SDS011;45749;51.140;17.184;2023-06-14T03:41:49;8.38;;;6.10;;
59876;SDS011;45749;51.140;17.184;2023-06-14T03:44:15;8.20;;;5.32;;
59876;SDS011;45749;51.140;17.184;2023-06-14T03:46:42;6.70;;;5.55;;
59876;SDS011;45749;51.140;17.184;2023-06-14T03:49:08;10.15;;;6.13;;
59876;SDS011;45749;51.140;17.184;2023-06-14T03:51:33;7.93;;;6.45;;
59876;SDS011;45749;51.140;17.184;2023-06-14T03:54:00;7.78;;;6.70;;
59876;SDS011;45749;51.140;17.184;2023-06-14T03:56:26;8.00;;;5.85;;
59876;SDS011;45749;51.140;17.184;2023-06-14T03:58:51;9.70;;;6.97;;
59876;SDS011;45749;51.140;17.184;2023-06-14T04:01:17;9.90;;;6.13;;
59876;SDS011;45749;51.140;17.184;2023-06-14T04:03:42;10.48;;;7.70;;
59876;SDS011;45749;51.140;17.184;2023-06-14T04:06:08;7.80;;;6.18;;
59876;SDS011;45749;51.140;17.184;2023-06-14T04:08:33;12.55;;;6.75;;
59876;SDS011;45749;51.140;17.184;2023-06-14T04:10:59;9.63;;;6.90;;
59876;SDS011;45749;51.140;17.184;2023-06-14T04:13:25;12.43;;;8.15;;
59876;SDS011;45749;51.140;17.184;2023-06-14T04:15:52;11.57;;;7.00;;
59876;SDS011;45749;51.140;17.184;2023-06-14T04:18:17;9.05;;;7.22;;
59876;SDS011;45749;51.140;17.184;2023-06-14T04:20:44;8.23;;;7.35;;
59876;SDS011;45749;51.140;17.184;2023-06-14T04:23:13;8.48;;;6.63;;
59876;SDS011;45749;51.140;17.184;2023-06-14T04:25:40;10.50;;;7.93;;
59876;SDS011;45749;51.140;17.184;2023-06-14T04:28:10;11.02;;;7.35;;
59876;SDS011;45749;51.140;17.184;2023-06-14T04:30:36;9.50;;;7.65;;
59876;SDS011;45749;51.140;17.184;2023-06-14T04:33:03;8.75;;;7.78;;
59876;SDS011;45749;51.140;17.184;2023-06-14T04:35:30;9.93;;;8.23;;
59876;SDS011;45749;51.140;17.184;2023-06-14T04:37:57;11.88;;;8.27;;
59876;SDS011;45749;51.140;17.184;2023-06-14T04:40:23;12.32;;;8.93;;
59876;SDS011;45749;51.140;17.184;2023-06-14T04:42:48;10.95;;;8.40;;
59876;SDS011;45749;51.140;17.184;2023-06-14T04:45:15;14.27;;;9.05;;
59876;SDS011;45749;51.140;17.184;2023-06-14T04:47:41;10.77;;;9.10;;
59876;SDS011;45749;51.140;17.184;2023-06-14T04:50:07;12.68;;;9.50;;
59876;SDS011;45749;51.140;17.184;2023-06-14T04:52:33;13.70;;;9.85;;
59876;SDS011;45749;51.140;17.184;2023-06-14T04:55:00;13.68;;;10.73;;
59876;SDS011;45749;51.140;17.184;2023-06-14T04:57:26;12.63;;;10.38;;
59876;SDS011;45749;51.140;17.184;2023-06-14T04:59:52;11.18;;;9.05;;
59876;SDS011;45749;51.140;17.184;2023-06-14T05:02:22;12.65;;;10.63;;
59876;SDS011;45749;51.140;17.184;2023-06-14T05:04:49;15.30;;;11.25;;
59876;SDS011;45749;51.140;17.184;2023-06-14T05:07:15;14.20;;;10.30;;
59876;SDS011;45749;51.140;17.184;2023-06-14T05:09:40;14.77;;;11.52;;
59876;SDS011;45749;51.140;17.184;2023-06-14T05:12:06;19.90;;;13.15;;
59876;SDS011;45749;51.140;17.184;2023-06-14T05:14:34;18.65;;;12.50;;
59876;SDS011;45749;51.140;17.184;2023-06-14T05:17:00;16.90;;;12.60;;
59876;SDS011;45749;51.140;17.184;2023-06-14T05:19:26;17.48;;;13.65;;
59876;SDS011;45749;51.140;17.184;2023-06-14T05:21:51;18.83;;;12.80;;
59876;SDS011;45749;51.140;17.184;2023-06-14T05:24:17;18.95;;;14.25;;
59876;SDS011;45749;51.140;17.184;2023-06-14T05:26:43;19.45;;;13.38;;
59876;SDS011;45749;51.140;17.184;2023-06-14T05:29:08;18.73;;;14.05;;
59876;SDS011;45749;51.140;17.184;2023-06-14T05:31:33;17.70;;;13.70;;
59876;SDS011;45749;51.140;17.184;2023-06-14T05:33:59;20.15;;;14.35;;
59876;SDS011;45749;51.140;17.184;2023-06-14T05:36:24;22.58;;;14.57;;
59876;SDS011;45749;51.140;17.184;2023-06-14T05:38:50;19.23;;;13.43;;
59876;SDS011;45749;51.140;17.184;2023-06-14T05:41:16;18.95;;;14.13;;
59876;SDS011;45749;51.140;17.184;2023-06-14T05:43:41;19.15;;;14.20;;
59876;SDS011;45749;51.140;17.184;2023-06-14T05:46:07;18.30;;;14.38;;
59876;SDS011;45749;51.140;17.184;2023-06-14T05:48:32;18.17;;;13.55;;
59876;SDS011;45749;51.140;17.184;2023-06-14T05:50:58;19.70;;;14.52;;
59876;SDS011;45749;51.140;17.184;2023-06-14T05:53:24;21.42;;;14.15;;
59876;SDS011;45749;51.140;17.184;2023-06-14T05:55:50;18.40;;;13.93;;
59876;SDS011;45749;51.140;17.184;2023-06-14T05:58:18;24.08;;;16.63;;
59876;SDS011;45749;51.140;17.184;2023-06-14T06:00:43;19.85;;;15.23;;
59876;SDS011;45749;51.140;17.184;2023-06-14T06:03:08;20.38;;;14.32;;
59876;SDS011;45749;51.140;17.184;2023-06-14T06:05:36;24.35;;;15.50;;
59876;SDS011;45749;51.140;17.184;2023-06-14T06:08:01;20.73;;;15.27;;
59876;SDS011;45749;51.140;17.184;2023-06-14T06:10:27;20.33;;;14.95;;
59876;SDS011;45749;51.140;17.184;2023-06-14T06:12:52;22.67;;;15.55;;
59876;SDS011;45749;51.140;17.184;2023-06-14T06:15:19;23.48;;;15.77;;
59876;SDS011;45749;51.140;17.184;2023-06-14T06:17:46;20.35;;;14.23;;
59876;SDS011;45749;51.140;17.184;2023-06-14T06:20:11;22.58;;;17.17;;
59876;SDS011;45749;51.140;17.184;2023-06-14T06:22:37;20.88;;;14.57;;
59876;SDS011;45749;51.140;17.184;2023-06-14T06:25:03;23.05;;;16.05;;
59876;SDS011;45749;51.140;17.184;2023-06-14T06:27:28;22.13;;;15.38;;
59876;SDS011;45749;51.140;17.184;2023-06-14T06:29:54;21.55;;;15.45;;
59876;SDS011;45749;51.140;17.184;2023-06-14T06:32:19;22.52;;;14.23;;
59876;SDS011;45749;51.140;17.184;2023-06-14T06:34:44;21.98;;;16.50;;
59876;SDS011;45749;51.140;17.184;2023-06-14T06:37:10;21.90;;;15.00;;
59876;SDS011;45749;51.140;17.184;2023-06-14T06:39:35;20.27;;;15.68;;
59876;SDS011;45749;51.140;17.184;2023-06-14T06:42:00;21.58;;;15.32;;
59876;SDS011;45749;51.140;17.184;2023-06-14T06:44:26;20.05;;;14.63;;
59876;SDS011;45749;51.140;17.184;2023-06-14T06:46:51;22.38;;;15.57;;
59876;SDS011;45749;51.140;17.184;2023-06-14T06:49:16;19.15;;;14.80;;
59876;SDS011;45749;51.140;17.184;2023-06-14T06:51:42;20.10;;;14.45;;
59876;SDS011;45749;51.140;17.184;2023-06-14T06:54:10;20.35;;;15.50;;
59876;SDS011;45749;51.140;17.184;2023-06-14T06:56:36;20.48;;;14.68;;
59876;SDS011;45749;51.140;17.184;2023-06-14T06:59:01;21.83;;;14.88;;
59876;SDS011;45749;51.140;17.184;2023-06-14T07:01:26;20.73;;;15.02;;
59876;SDS011;45749;51.140;17.184;2023-06-14T07:03:54;17.92;;;15.13;;
59876;SDS011;45749;51.140;17.184;2023-06-14T07:06:19;20.38;;;14.60;;
59876;SDS011;45749;51.140;17.184;2023-06-14T07:08:45;20.90;;;15.45;;
59876;SDS011;45749;51.140;17.184;2023-06-14T07:11:11;19.33;;;15.32;;
59876;SDS011;45749;51.140;17.184;2023-06-14T07:13:36;21.15;;;16.42;;
59876;SDS011;45749;51.140;17.184;2023-06-14T07:16:03;17.10;;;14.02;;
59876;SDS011;45749;51.140;17.184;2023-06-14T07:18:29;19.67;;;14.15;;
59876;SDS011;45749;51.140;17.184;2023-06-14T07:20:55;18.27;;;15.15;;
59876;SDS011;45749;51.140;17.184;2023-06-14T07:23:22;19.52;;;14.05;;
59876;SDS011;45749;51.140;17.184;2023-06-14T07:25:47;18.40;;;14.65;;
59876;SDS011;45749;51.140;17.184;2023-06-14T07:28:12;20.50;;;15.38;;
59876;SDS011;45749;51.140;17.184;2023-06-14T07:30:38;18.90;;;14.98;;
59876;SDS011;45749;51.140;17.184;2023-06-14T07:33:03;17.10;;;13.77;;
59876;SDS011;45749;51.140;17.184;2023-06-14T07:35:28;17.17;;;14.20;;
59876;SDS011;45749;51.140;17.184;2023-06-14T07:37:54;17.33;;;13.50;;
59876;SDS011;45749;51.140;17.184;2023-06-14T07:40:20;19.63;;;14.70;;
59876;SDS011;45749;51.140;17.184;2023-06-14T07:42:45;16.88;;;13.30;;
59876;SDS011;45749;51.140;17.184;2023-06-14T07:45:12;17.63;;;12.95;;
59876;SDS011;45749;51.140;17.184;2023-06-14T07:47:38;15.50;;;13.30;;
59876;SDS011;45749;51.140;17.184;2023-06-14T07:50:04;16.77;;;13.65;;
59876;SDS011;45749;51.140;17.184;2023-06-14T07:52:29;17.13;;;13.80;;
59876;SDS011;45749;51.140;17.184;2023-06-14T07:54:55;14.95;;;12.80;;
59876;SDS011;45749;51.140;17.184;2023-06-14T07:57:21;14.57;;;12.70;;
59876;SDS011;45749;51.140;17.184;2023-06-14T07:59:47;15.93;;;13.25;;
59876;SDS011;45749;51.140;17.184;2023-06-14T08:02:12;14.95;;;13.05;;
59876;SDS011;45749;51.140;17.184;2023-06-14T08:04:38;15.20;;;11.10;;
59876;SDS011;45749;51.140;17.184;2023-06-14T08:07:03;12.85;;;10.50;;
59876;SDS011;45749;51.140;17.184;2023-06-14T08:09:29;13.75;;;10.75;;
59876;SDS011;45749;51.140;17.184;2023-06-14T08:11:54;13.50;;;10.93;;
59876;SDS011;45749;51.140;17.184;2023-06-14T08:14:20;15.43;;;11.63;;
59876;SDS011;45749;51.140;17.184;2023-06-14T08:16:45;12.90;;;9.90;;
59876;SDS011;45749;51.140;17.184;2023-06-14T08:19:11;13.23;;;9.65;;
59876;SDS011;45749;51.140;17.184;2023-06-14T08:21:36;15.95;;;9.68;;
59876;SDS011;45749;51.140;17.184;2023-06-14T08:24:01;10.85;;;8.52;;
59876;SDS011;45749;51.140;17.184;2023-06-14T08:26:27;12.48;;;8.50;;
59876;SDS011;45749;51.140;17.184;2023-06-14T08:28:54;12.27;;;8.85;;
59876;SDS011;45749;51.140;17.184;2023-06-14T08:31:20;10.93;;;8.25;;
59876;SDS011;45749;51.140;17.184;2023-06-14T08:33:45;11.65;;;9.13;;
59876;SDS011;45749;51.140;17.184;2023-06-14T08:36:10;10.52;;;8.52;;
59876;SDS011;45749;51.140;17.184;2023-06-14T08:38:37;8.07;;;7.05;;
59876;SDS011;45749;51.140;17.184;2023-06-14T08:41:02;9.27;;;6.57;;
59876;SDS011;45749;51.140;17.184;2023-06-14T08:43:30;9.05;;;6.78;;
59876;SDS011;45749;51.140;17.184;2023-06-14T08:45:58;8.98;;;6.75;;
59876;SDS011;45749;51.140;17.184;2023-06-14T08:48:26;10.90;;;7.90;;
59876;SDS011;45749;51.140;17.184;2023-06-14T08:50:51;10.35;;;8.15;;
59876;SDS011;45749;51.140;17.184;2023-06-14T08:53:26;9.55;;;7.28;;
59876;SDS011;45749;51.140;17.184;2023-06-14T08:55:53;8.45;;;7.57;;
59876;SDS011;45749;51.140;17.184;2023-06-14T08:58:20;8.40;;;7.43;;
59876;SDS011;45749;51.140;17.184;2023-06-14T09:00:49;10.05;;;7.63;;
59876;SDS011;45749;51.140;17.184;2023-06-14T09:03:17;9.27;;;7.78;;
59876;SDS011;45749;51.140;17.184;2023-06-14T09:05:42;8.13;;;6.32;;
59876;SDS011;45749;51.140;17.184;2023-06-14T09:08:08;7.43;;;6.25;;
59876;SDS011;45749;51.140;17.184;2023-06-14T09:10:34;6.55;;;5.85;;
59876;SDS011;45749;51.140;17.184;2023-06-14T09:13:02;7.10;;;6.40;;
59876;SDS011;45749;51.140;17.184;2023-06-14T09:15:28;7.88;;;4.90;;
59876;SDS011;45749;51.140;17.184;2023-06-14T09:17:54;7.60;;;4.75;;
59876;SDS011;45749;51.140;17.184;2023-06-14T09:20:20;9.73;;;5.10;;
59876;SDS011;45749;51.140;17.184;2023-06-14T09:22:46;11.20;;;4.68;;
59876;SDS011;45749;51.140;17.184;2023-06-14T09:25:11;5.47;;;4.82;;
59876;SDS011;45749;51.140;17.184;2023-06-14T09:27:40;5.32;;;4.10;;
59876;SDS011;45749;51.140;17.184;2023-06-14T09:30:08;5.97;;;3.90;;
59876;SDS011;45749;51.140;17.184;2023-06-14T09:32:38;6.13;;;3.90;;
59876;SDS011;45749;51.140;17.184;2023-06-14T09:35:07;4.07;;;3.65;;
59876;SDS011;45749;51.140;17.184;2023-06-14T09:37:33;6.45;;;4.43;;
59876;SDS011;45749;51.140;17.184;2023-06-14T09:39:59;6.85;;;4.68;;
59876;SDS011;45749;51.140;17.184;2023-06-14T09:42:25;6.60;;;4.97;;
59876;SDS011;45749;51.140;17.184;2023-06-14T09:44:51;6.05;;;4.30;;
59876;SDS011;45749;51.140;17.184;2023-06-14T09:47:18;5.30;;;4.60;;
59876;SDS011;45749;51.140;17.184;2023-06-14T09:49:45;6.95;;;4.72;;
59876;SDS011;45749;51.140;17.184;2023-06-14T09:52:15;7.40;;;5.22;;
59876;SDS011;45749;51.140;17.184;2023-06-14T09:57:11;10.27;;;7.20;;
59876;SDS011;45749;51.140;17.184;2023-06-14T09:59:37;11.40;;;7.60;;
59876;SDS011;45749;51.140;17.184;2023-06-14T10:02:07;13.43;;;8.63;;
59876;SDS011;45749;51.140;17.184;2023-06-14T10:05:05;7.70;;;5.03;;
59876;SDS011;45749;51.140;17.184;2023-06-14T10:07:40;6.03;;;3.92;;
59876;SDS011;45749;51.140;17.184;2023-06-14T10:10:09;7.00;;;4.78;;
59876;SDS011;45749;51.140;17.184;2023-06-14T10:12:35;5.05;;;4.25;;
59876;SDS011;45749;51.140;17.184;2023-06-14T10:15:01;9.43;;;5.97;;
59876;SDS011;45749;51.140;17.184;2023-06-14T10:17:46;6.25;;;5.20;;
59876;SDS011;45749;51.140;17.184;2023-06-14T10:22:55;5.55;;;4.25;;
59876;SDS011;45749;51.140;17.184;2023-06-14T10:25:35;4.85;;;3.58;;
59876;SDS011;45749;51.140;17.184;2023-06-14T10:33:30;4.95;;;3.80;;
59876;SDS011;45749;51.140;17.184;2023-06-14T10:38:56;5.82;;;4.20;;
59876;SDS011;45749;51.140;17.184;2023-06-14T10:41:22;7.57;;;3.55;;
59876;SDS011;45749;51.140;17.184;2023-06-14T10:43:49;6.85;;;3.38;;
59876;SDS011;45749;51.140;17.184;2023-06-14T10:46:15;4.60;;;3.10;;
59876;SDS011;45749;51.140;17.184;2023-06-14T10:48:42;3.30;;;3.00;;
59876;SDS011;45749;51.140;17.184;2023-06-14T10:51:15;5.15;;;3.47;;
59876;SDS011;45749;51.140;17.184;2023-06-14T10:53:45;3.75;;;3.08;;
59876;SDS011;45749;51.140;17.184;2023-06-14T10:56:26;5.00;;;3.45;;
59876;SDS011;45749;51.140;17.184;2023-06-14T10:58:53;6.13;;;3.22;;
59876;SDS011;45749;51.140;17.184;2023-06-14T11:01:19;4.90;;;2.50;;
59876;SDS011;45749;51.140;17.184;2023-06-14T11:03:56;5.07;;;2.85;;
59876;SDS011;45749;51.140;17.184;2023-06-14T11:06:30;3.45;;;2.72;;
59876;SDS011;45749;51.140;17.184;2023-06-14T11:09:20;5.20;;;3.10;;
59876;SDS011;45749;51.140;17.184;2023-06-14T11:12:04;6.05;;;5.40;;
59876;SDS011;45749;51.140;17.184;2023-06-14T11:14:35;4.75;;;4.03;;
59876;SDS011;45749;51.140;17.184;2023-06-14T11:17:00;4.82;;;3.50;;
59876;SDS011;45749;51.140;17.184;2023-06-14T11:19:26;4.13;;;2.95;;
59876;SDS011;45749;51.140;17.184;2023-06-14T11:21:53;4.28;;;2.90;;
59876;SDS011;45749;51.140;17.184;2023-06-14T11:24:19;5.88;;;3.47;;
59876;SDS011;45749;51.140;17.184;2023-06-14T11:26:46;6.60;;;3.92;;
59876;SDS011;45749;51.140;17.184;2023-06-14T11:29:14;4.72;;;3.42;;
59876;SDS011;45749;51.140;17.184;2023-06-14T11:31:42;6.38;;;2.55;;
59876;SDS011;45749;51.140;17.184;2023-06-14T11:34:12;4.53;;;3.23;;
59876;SDS011;45749;51.140;17.184;2023-06-14T11:36:38;5.30;;;3.47;;
59876;SDS011;45749;51.140;17.184;2023-06-14T11:39:05;6.03;;;3.63;;
59876;SDS011;45749;51.140;17.184;2023-06-14T11:41:38;5.22;;;3.95;;
59876;SDS011;45749;51.140;17.184;2023-06-14T11:44:05;8.00;;;3.72;;
59876;SDS011;45749;51.140;17.184;2023-06-14T11:46:32;5.93;;;3.65;;
59876;SDS011;45749;51.140;17.184;2023-06-14T11:48:57;4.50;;;3.10;;
59876;SDS011;45749;51.140;17.184;2023-06-14T11:51:23;6.47;;;3.22;;
59876;SDS011;45749;51.140;17.184;2023-06-14T11:53:48;5.38;;;3.83;;
59876;SDS011;45749;51.140;17.184;2023-06-14T11:56:14;4.70;;;3.67;;
59876;SDS011;45749;51.140;17.184;2023-06-14T11:58:40;8.38;;;4.57;;
59876;SDS011;45749;51.140;17.184;2023-06-14T12:01:08;5.72;;;4.00;;
59876;SDS011;45749;51.140;17.184;2023-06-14T12:03:33;6.05;;;3.15;;
59876;SDS011;45749;51.140;17.184;2023-06-14T12:06:06;5.03;;;3.70;;
59876;SDS011;45749;51.140;17.184;2023-06-14T12:08:35;6.97;;;4.18;;
59876;SDS011;45749;51.140;17.184;2023-06-14T12:11:04;7.90;;;3.67;;
59876;SDS011;45749;51.140;17.184;2023-06-14T12:13:40;9.18;;;4.03;;
59876;SDS011;45749;51.140;17.184;2023-06-14T12:16:07;6.30;;;3.53;;
59876;SDS011;45749;51.140;17.184;2023-06-14T12:18:36;4.53;;;3.25;;
59876;SDS011;45749;51.140;17.184;2023-06-14T12:21:05;6.47;;;3.55;;
59876;SDS011;45749;51.140;17.184;2023-06-14T12:23:47;6.05;;;3.80;;
59876;SDS011;45749;51.140;17.184;2023-06-14T12:26:14;10.45;;;3.92;;
59876;SDS011;45749;51.140;17.184;2023-06-14T12:28:41;6.40;;;3.95;;
59876;SDS011;45749;51.140;17.184;2023-06-14T12:31:14;6.25;;;3.60;;
59876;SDS011;45749;51.140;17.184;2023-06-14T12:33:40;6.65;;;3.85;;
59876;SDS011;45749;51.140;17.184;2023-06-14T12:36:07;5.30;;;4.22;;
59876;SDS011;45749;51.140;17.184;2023-06-14T12:38:34;5.70;;;4.43;;
59876;SDS011;45749;51.140;17.184;2023-06-14T12:41:00;6.05;;;4.15;;
59876;SDS011;45749;51.140;17.184;2023-06-14T12:43:26;6.95;;;4.72;;
59876;SDS011;45749;51.140;17.184;2023-06-14T12:45:51;4.78;;;3.80;;
59876;SDS011;45749;51.140;17.184;2023-06-14T12:48:17;8.00;;;4.68;;
59876;SDS011;45749;51.140;17.184;2023-06-14T12:50:42;8.55;;;5.50;;
59876;SDS011;45749;51.140;17.184;2023-06-14T12:53:07;5.07;;;4.18;;
59876;SDS011;45749;51.140;17.184;2023-06-14T12:55:33;7.97;;;4.53;;
59876;SDS011;45749;51.140;17.184;2023-06-14T12:57:58;11.50;;;4.40;;
59876;SDS011;45749;51.140;17.184;2023-06-14T13:00:24;6.22;;;4.47;;
59876;SDS011;45749;51.140;17.184;2023-06-14T13:02:51;7.55;;;4.57;;
59876;SDS011;45749;51.140;17.184;2023-06-14T13:05:16;7.97;;;3.95;;
59876;SDS011;45749;51.140;17.184;2023-06-14T13:07:42;4.85;;;4.35;;
59876;SDS011;45749;51.140;17.184;2023-06-14T13:10:07;7.72;;;3.85;;
59876;SDS011;45749;51.140;17.184;2023-06-14T13:12:33;4.63;;;3.65;;
59876;SDS011;45749;51.140;17.184;2023-06-14T13:14:58;8.02;;;4.50;;
59876;SDS011;45749;51.140;17.184;2023-06-14T13:17:23;5.47;;;4.03;;
59876;SDS011;45749;51.140;17.184;2023-06-14T13:19:48;4.63;;;4.10;;
59876;SDS011;45749;51.140;17.184;2023-06-14T13:22:14;4.47;;;3.45;;
59876;SDS011;45749;51.140;17.184;2023-06-14T13:24:40;4.47;;;3.58;;
59876;SDS011;45749;51.140;17.184;2023-06-14T13:27:05;7.20;;;3.67;;
59876;SDS011;45749;51.140;17.184;2023-06-14T13:29:31;5.47;;;4.18;;
59876;SDS011;45749;51.140;17.184;2023-06-14T13:31:58;6.45;;;4.13;;
59876;SDS011;45749;51.140;17.184;2023-06-14T13:34:23;6.90;;;4.45;;
59876;SDS011;45749;51.140;17.184;2023-06-14T13:36:49;5.22;;;3.70;;
59876;SDS011;45749;51.140;17.184;2023-06-14T13:39:14;4.60;;;3.40;;
59876;SDS011;45749;51.140;17.184;2023-06-14T13:41:40;5.65;;;2.88;;
59876;SDS011;45749;51.140;17.184;2023-06-14T13:44:05;3.47;;;2.63;;
59876;SDS011;45749;51.140;17.184;2023-06-14T13:46:31;4.65;;;2.97;;
59876;SDS011;45749;51.140;17.184;2023-06-14T13:48:56;2.60;;;2.25;;
59876;SDS011;45749;51.140;17.184;2023-06-14T13:51:23;5.57;;;2.92;;
59876;SDS011;45749;51.140;17.184;2023-06-14T13:53:48;4.05;;;3.25;;
59876;SDS011;45749;51.140;17.184;2023-06-14T13:56:14;5.70;;;3.28;;
59876;SDS011;45749;51.140;17.184;2023-06-14T13:58:39;4.32;;;3.28;;
59876;SDS011;45749;51.140;17.184;2023-06-14T14:01:05;4.25;;;3.40;;
59876;SDS011;45749;51.140;17.184;2023-06-14T14:03:30;8.82;;;4.75;;
59876;SDS011;45749;51.140;17.184;2023-06-14T14:05:56;7.65;;;3.35;;
59876;SDS011;45749;51.140;17.184;2023-06-14T14:08:21;6.80;;;4.00;;
59876;SDS011;45749;51.140;17.184;2023-06-14T14:10:46;4.55;;;3.28;;
59876;SDS011;45749;51.140;17.184;2023-06-14T14:13:12;6.10;;;4.13;;
59876;SDS011;45749;51.140;17.184;2023-06-14T14:15:37;6.38;;;4.28;;
59876;SDS011;45749;51.140;17.184;2023-06-14T14:18:03;6.80;;;3.67;;
59876;SDS011;45749;51.140;17.184;2023-06-14T14:20:29;6.22;;;3.92;;
59876;SDS011;45749;51.140;17.184;2023-06-14T14:22:55;7.07;;;4.43;;
59876;SDS011;45749;51.140;17.184;2023-06-14T14:25:21;4.07;;;3.13;;
59876;SDS011;45749;51.140;17.184;2023-06-14T14:27:46;5.22;;;3.83;;
59876;SDS011;45749;51.140;17.184;2023-06-14T14:30:12;5.43;;;3.42;;
59876;SDS011;45749;51.140;17.184;2023-06-14T14:32:39;5.10;;;3.20;;
59876;SDS011;45749;51.140;17.184;2023-06-14T14:35:05;7.88;;;3.95;;
59876;SDS011;45749;51.140;17.184;2023-06-14T14:37:31;5.18;;;3.80;;
59876;SDS011;45749;51.140;17.184;2023-06-14T14:39:56;5.03;;;3.47;;
59876;SDS011;45749;51.140;17.184;2023-06-14T14:42:21;5.60;;;3.30;;
59876;SDS011;45749;51.140;17.184;2023-06-14T14:44:47;3.50;;;3.20;;